sensor_id;sensor_type;location;lat;lon;timestamp;pressure;altitude;pressure_sealevel;temperature;humidity
49947;BME280;35839;48.662;13.300;2023-02-28T05:38:02;98002.81;;;0.08;73.41
49947;BME280;35839;48.662;13.300;2023-02-28T05:40:28;98004.53;;;-0.12;75.15
49947;BME280;35839;48.662;13.300;2023-02-28T05:42:53;97996.34;;;-0.01;74.22
49947;BME280;35839;48.662;13.300;2023-02-28T05:45:18;98005.25;;;-0.08;75.71
49947;BME280;35839;48.662;13.300;2023-02-28T05:47:43;97999.53;;;0.04;74.59
49947;BME280;35839;48.662;13.300;2023-02-28T05:50:09;98002.59;;;0.31;72.79
49947;BME280;35839;48.662;13.300;2023-02-28T05:52:36;98009.25;;;-0.03;74.72
49947;BME280;35839;48.662;13.300;2023-02-28T05:55:02;98016.16;;;0.16;74.05
49947;BME280;35839;48.662;13.300;2023-02-28T05:57:27;98008.84;;;0.26;72.25
49947;BME280;35839;48.662;13.300;2023-02-28T05:59:52;98016.81;;;0.21;74.24
49947;BME280;35839;48.662;13.300;2023-02-28T06:02:18;98021.94;;;0.02;75.02
49947;BME280;35839;48.662;13.300;2023-02-28T06:04:43;98023.53;;;0.05;74.04
49947;BME280;35839;48.662;13.300;2023-02-28T06:07:09;98022.28;;;0.13;73.80
49947;BME280;35839;48.662;13.300;2023-02-28T06:09:35;98029.75;;;0.01;75.35
49947;BME280;35839;48.662;13.300;2023-02-28T06:12:02;98026.88;;;0.07;75.47
49947;BME280;35839;48.662;13.300;2023-02-28T06:14:29;98038.31;;;0.01;75.55
49947;BME280;35839;48.662;13.300;2023-02-28T06:16:56;98043.09;;;0.28;74.00
49947;BME280;35839;48.662;13.300;2023-02-28T06:19:21;98033.91;;;0.03;74.69
49947;BME280;35839;48.662;13.300;2023-02-28T06:21:49;98048.94;;;-0.07;74.80
49947;BME280;35839;48.662;13.300;2023-02-28T06:24:17;98040.97;;;0.37;74.28
49947;BME280;35839;48.662;13.300;2023-02-28T06:26:42;98036.97;;;0.30;74.33
49947;BME280;35839;48.662;13.300;2023-02-28T06:29:07;98049.84;;;0.30;74.08
49947;BME280;35839;48.662;13.300;2023-02-28T06:31:33;98042.56;;;0.40;73.91
49947;BME280;35839;48.662;13.300;2023-02-28T06:33:58;98046.81;;;0.22;73.70
49947;BME280;35839;48.662;13.300;2023-02-28T06:36:23;98046.31;;;0.33;74.57
49947;BME280;35839;48.662;13.300;2023-02-28T06:38:49;98048.25;;;0.09;74.53
49947;BME280;35839;48.662;13.300;2023-02-28T06:41:20;98048.03;;;0.51;72.65
49947;BME280;35839;48.662;13.300;2023-02-28T06:43:45;98050.69;;;0.50;72.91
49947;BME280;35839;48.662;13.300;2023-02-28T06:46:12;98059.41;;;0.28;72.32
49947;BME280;35839;48.662;13.300;2023-02-28T06:48:39;98070.34;;;0.52;72.76
49947;BME280;35839;48.662;13.300;2023-02-28T06:51:07;98073.81;;;0.32;72.79
49947;BME280;35839;48.662;13.300;2023-02-28T06:53:33;98075.53;;;0.51;73.20
49947;BME280;35839;48.662;13.300;2023-02-28T06:55:58;98066.97;;;0.50;73.77
49947;BME280;35839;48.662;13.300;2023-02-28T06:58:23;98065.31;;;0.68;71.44
49947;BME280;35839;48.662;13.300;2023-02-28T07:00:52;98070.38;;;0.51;72.19
49947;BME280;35839;48.662;13.300;2023-02-28T07:03:17;98077.22;;;0.71;70.52
49947;BME280;35839;48.662;13.300;2023-02-28T07:05:44;98083.38;;;0.86;71.51
49947;BME280;35839;48.662;13.300;2023-02-28T07:08:09;98074.00;;;0.84;72.90
49947;BME280;35839;48.662;13.300;2023-02-28T07:10:37;98077.41;;;1.02;70.10
49947;BME280;35839;48.662;13.300;2023-02-28T07:13:03;98078.72;;;0.94;70.92
49947;BME280;35839;48.662;13.300;2023-02-28T07:15:29;98074.44;;;0.93;71.10
49947;BME280;35839;48.662;13.300;2023-02-28T07:17:55;98077.19;;;0.90;72.81
49947;BME280;35839;48.662;13.300;2023-02-28T07:20:21;98084.63;;;1.13;72.29
49947;BME280;35839;48.662;13.300;2023-02-28T07:22:48;98082.38;;;1.24;69.46
49947;BME280;35839;48.662;13.300;2023-02-28T07:25:20;98075.94;;;1.33;70.09
49947;BME280;35839;48.662;13.300;2023-02-28T07:27:46;98067.81;;;1.41;68.20
49947;BME280;35839;48.662;13.300;2023-02-28T07:30:11;98084.03;;;1.08;68.79
49947;BME280;35839;48.662;13.300;2023-02-28T07:32:37;98081.00;;;1.35;69.77
49947;BME280;35839;48.662;13.300;2023-02-28T07:35:03;98073.97;;;1.38;68.62
49947;BME280;35839;48.662;13.300;2023-02-28T07:37:28;98076.75;;;1.51;67.99
49947;BME280;35839;48.662;13.300;2023-02-28T07:39:56;98080.25;;;1.50;68.29
49947;BME280;35839;48.662;13.300;2023-02-28T07:42:22;98081.78;;;1.54;67.78
49947;BME280;35839;48.662;13.300;2023-02-28T07:44:47;98078.28;;;1.73;67.95
49947;BME280;35839;48.662;13.300;2023-02-28T07:47:12;98080.84;;;1.55;67.69
49947;BME280;35839;48.662;13.300;2023-02-28T07:49:38;98084.03;;;1.60;66.88
49947;BME280;35839;48.662;13.300;2023-02-28T07:52:05;98082.81;;;1.67;66.21
49947;BME280;35839;48.662;13.300;2023-02-28T07:54:31;98089.66;;;1.51;69.01
49947;BME280;35839;48.662;13.300;2023-02-28T07:56:57;98085.41;;;1.67;68.29
49947;BME280;35839;48.662;13.300;2023-02-28T07:59:22;98086.22;;;1.85;66.18
49947;BME280;35839;48.662;13.300;2023-02-28T08:01:47;98082.94;;;1.99;67.02
49947;BME280;35839;48.662;13.300;2023-02-28T08:04:16;98081.00;;;1.87;67.25
49947;BME280;35839;48.662;13.300;2023-02-28T08:06:41;98074.72;;;1.91;67.10
49947;BME280;35839;48.662;13.300;2023-02-28T08:09:06;98081.69;;;2.06;66.79
49947;BME280;35839;48.662;13.300;2023-02-28T08:11:32;98075.50;;;2.42;63.38
49947;BME280;35839;48.662;13.300;2023-02-28T08:13:57;98077.25;;;2.58;62.94
49947;BME280;35839;48.662;13.300;2023-02-28T08:16:23;98075.66;;;2.39;65.94
49947;BME280;35839;48.662;13.300;2023-02-28T08:18:51;98084.31;;;2.22;65.97
49947;BME280;35839;48.662;13.300;2023-02-28T08:21:18;98079.59;;;2.62;66.24
49947;BME280;35839;48.662;13.300;2023-02-28T08:23:43;98078.16;;;2.88;64.21
49947;BME280;35839;48.662;13.300;2023-02-28T08:26:09;98070.06;;;2.94;62.26
49947;BME280;35839;48.662;13.300;2023-02-28T08:28:34;98076.69;;;2.68;62.50
49947;BME280;35839;48.662;13.300;2023-02-28T08:31:00;98079.25;;;2.84;63.36
49947;BME280;35839;48.662;13.300;2023-02-28T08:33:26;98070.91;;;2.95;63.15
49947;BME280;35839;48.662;13.300;2023-02-28T08:35:53;98076.75;;;2.99;63.36
49947;BME280;35839;48.662;13.300;2023-02-28T08:38:19;98075.72;;;3.17;61.28
49947;BME280;35839;48.662;13.300;2023-02-28T08:40:44;98070.88;;;3.11;61.40
49947;BME280;35839;48.662;13.300;2023-02-28T08:43:09;98081.31;;;3.40;62.82
49947;BME280;35839;48.662;13.300;2023-02-28T08:45:35;98073.59;;;3.54;61.98
49947;BME280;35839;48.662;13.300;2023-02-28T08:48:00;98078.16;;;3.65;61.53
49947;BME280;35839;48.662;13.300;2023-02-28T08:50:25;98075.91;;;3.58;60.02
49947;BME280;35839;48.662;13.300;2023-02-28T08:52:51;98073.78;;;3.51;61.11
49947;BME280;35839;48.662;13.300;2023-02-28T08:55:16;98072.97;;;3.65;61.14
49947;BME280;35839;48.662;13.300;2023-02-28T08:57:41;98078.75;;;3.24;60.49
49947;BME280;35839;48.662;13.300;2023-02-28T09:00:07;98082.03;;;3.27;61.23
49947;BME280;35839;48.662;13.300;2023-02-28T09:02:33;98078.88;;;3.22;62.13
49947;BME280;35839;48.662;13.300;2023-02-28T09:04:58;98081.28;;;3.55;62.04
49947;BME280;35839;48.662;13.300;2023-02-28T09:07:24;98081.28;;;3.70;58.64
49947;BME280;35839;48.662;13.300;2023-02-28T09:09:50;98078.22;;;3.63;59.67
49947;BME280;35839;48.662;13.300;2023-02-28T09:12:24;98081.50;;;4.10;58.35
49947;BME280;35839;48.662;13.300;2023-02-28T09:14:49;98073.47;;;3.86;60.60
49947;BME280;35839;48.662;13.300;2023-02-28T09:17:15;98078.38;;;4.05;57.55
49947;BME280;35839;48.662;13.300;2023-02-28T09:19:40;98078.38;;;4.05;57.59
49947;BME280;35839;48.662;13.300;2023-02-28T09:22:06;98088.81;;;4.46;57.54
49947;BME280;35839;48.662;13.300;2023-02-28T09:24:31;98086.97;;;4.48;58.28
49947;BME280;35839;48.662;13.300;2023-02-28T09:26:56;98081.28;;;4.70;55.64
49947;BME280;35839;48.662;13.300;2023-02-28T09:29:22;98089.28;;;4.24;57.07
49947;BME280;35839;48.662;13.300;2023-02-28T09:31:47;98084.78;;;3.99;59.29
49947;BME280;35839;48.662;13.300;2023-02-28T09:34:12;98090.84;;;4.12;60.10
49947;BME280;35839;48.662;13.300;2023-02-28T09:36:38;98095.16;;;3.54;59.16
49947;BME280;35839;48.662;13.300;2023-02-28T09:39:03;98088.66;;;3.92;60.01
49947;BME280;35839;48.662;13.300;2023-02-28T09:41:36;98097.53;;;4.31;57.54
49947;BME280;35839;48.662;13.300;2023-02-28T09:44:06;98091.13;;;4.08;60.08
49947;BME280;35839;48.662;13.300;2023-02-28T09:46:39;98102.34;;;4.51;57.19
49947;BME280;35839;48.662;13.300;2023-02-28T09:49:10;98102.16;;;4.40;58.32
49947;BME280;35839;48.662;13.300;2023-02-28T09:54:19;98097.69;;;5.25;58.23
49947;BME280;35839;48.662;13.300;2023-02-28T09:56:49;98095.88;;;5.40;53.83
49947;BME280;35839;48.662;13.300;2023-02-28T10:05:00;98090.97;;;6.26;53.13
49947;BME280;35839;48.662;13.300;2023-02-28T10:07:55;98100.25;;;6.05;53.69
49947;BME280;35839;48.662;13.300;2023-02-28T10:10:36;98114.31;;;5.75;54.03
49947;BME280;35839;48.662;13.300;2023-02-28T10:13:06;98109.63;;;5.67;54.14
49947;BME280;35839;48.662;13.300;2023-02-28T10:15:32;98105.72;;;6.39;54.01
49947;BME280;35839;48.662;13.300;2023-02-28T10:18:03;98112.50;;;6.03;53.84
49947;BME280;35839;48.662;13.300;2023-02-28T10:20:33;98119.47;;;6.02;52.52
49947;BME280;35839;48.662;13.300;2023-02-28T10:23:20;98109.06;;;6.28;53.14
49947;BME280;35839;48.662;13.300;2023-02-28T10:26:01;98112.84;;;6.11;53.53
49947;BME280;35839;48.662;13.300;2023-02-28T10:28:33;98111.88;;;6.12;52.88
49947;BME280;35839;48.662;13.300;2023-02-28T10:30:58;98117.81;;;6.01;53.54
49947;BME280;35839;48.662;13.300;2023-02-28T10:33:25;98119.78;;;6.49;52.79
49947;BME280;35839;48.662;13.300;2023-02-28T10:35:53;98134.56;;;6.10;52.84
49947;BME280;35839;48.662;13.300;2023-02-28T10:38:33;98121.28;;;6.64;53.16
49947;BME280;35839;48.662;13.300;2023-02-28T10:41:10;98117.28;;;6.84;51.61
49947;BME280;35839;48.662;13.300;2023-02-28T10:43:37;98122.75;;;6.68;52.68
49947;BME280;35839;48.662;13.300;2023-02-28T10:48:44;98111.84;;;6.63;53.86
49947;BME280;35839;48.662;13.300;2023-02-28T10:51:12;98108.63;;;6.47;53.84
49947;BME280;35839;48.662;13.300;2023-02-28T10:53:50;98111.97;;;6.49;54.22
49947;BME280;35839;48.662;13.300;2023-02-28T10:56:19;98110.09;;;6.51;54.51
49947;BME280;35839;48.662;13.300;2023-02-28T11:01:41;98112.75;;;6.99;53.34
49947;BME280;35839;48.662;13.300;2023-02-28T11:06:46;98106.91;;;7.08;52.41
49947;BME280;35839;48.662;13.300;2023-02-28T11:09:31;98108.28;;;7.01;50.34
49947;BME280;35839;48.662;13.300;2023-02-28T11:11:58;98104.03;;;6.63;51.91
49947;BME280;35839;48.662;13.300;2023-02-28T11:14:31;98099.41;;;6.80;53.61
49947;BME280;35839;48.662;13.300;2023-02-28T11:17:11;98098.28;;;7.43;52.54
49947;BME280;35839;48.662;13.300;2023-02-28T11:19:40;98091.34;;;7.20;51.28
49947;BME280;35839;48.662;13.300;2023-02-28T11:22:09;98091.50;;;7.05;51.76
49947;BME280;35839;48.662;13.300;2023-02-28T11:24:44;98102.50;;;6.85;51.73
49947;BME280;35839;48.662;13.300;2023-02-28T11:27:47;98091.66;;;6.91;52.86
49947;BME280;35839;48.662;13.300;2023-02-28T11:30:37;98102.81;;;6.93;52.77
49947;BME280;35839;48.662;13.300;2023-02-28T11:36:09;98089.19;;;7.13;52.88
49947;BME280;35839;48.662;13.300;2023-02-28T11:38:36;98094.00;;;7.31;53.59
49947;BME280;35839;48.662;13.300;2023-02-28T11:43:55;98100.19;;;7.41;54.13
49947;BME280;35839;48.662;13.300;2023-02-28T11:49:16;98094.00;;;7.31;51.61
49947;BME280;35839;48.662;13.300;2023-02-28T11:56:59;98090.28;;;7.46;50.73
49947;BME280;35839;48.662;13.300;2023-02-28T12:05:26;98092.53;;;7.27;51.35
49947;BME280;35839;48.662;13.300;2023-02-28T12:08:15;98081.00;;;7.77;51.08
49947;BME280;35839;48.662;13.300;2023-02-28T12:16:40;98083.03;;;7.50;49.22
49947;BME280;35839;48.662;13.300;2023-02-28T12:19:20;98083.22;;;7.71;50.11
49947;BME280;35839;48.662;13.300;2023-02-28T12:22:03;98081.31;;;7.62;52.24
49947;BME280;35839;48.662;13.300;2023-02-28T12:27:17;98082.06;;;7.39;50.81
49947;BME280;35839;48.662;13.300;2023-02-28T12:29:55;98071.88;;;7.83;50.83
49947;BME280;35839;48.662;13.300;2023-02-28T12:32:35;98078.09;;;8.05;50.40
49947;BME280;35839;48.662;13.300;2023-02-28T12:35:32;98072.47;;;7.40;50.82
49947;BME280;35839;48.662;13.300;2023-02-28T12:38:05;98068.13;;;7.16;52.15
49947;BME280;35839;48.662;13.300;2023-02-28T12:41:19;98064.06;;;7.12;52.48
49947;BME280;35839;48.662;13.300;2023-02-28T12:43:55;98068.06;;;7.65;49.67
49947;BME280;35839;48.662;13.300;2023-02-28T12:46:27;98060.06;;;7.55;49.47
49947;BME280;35839;48.662;13.300;2023-02-28T12:49:10;98054.13;;;7.88;50.56
49947;BME280;35839;48.662;13.300;2023-02-28T12:51:38;98039.88;;;7.92;51.08
49947;BME280;35839;48.662;13.300;2023-02-28T12:56:46;98048.59;;;7.57;53.35
49947;BME280;35839;48.662;13.300;2023-02-28T12:59:36;98053.06;;;7.44;51.61
49947;BME280;35839;48.662;13.300;2023-02-28T13:05:01;98050.66;;;7.76;51.05
49947;BME280;35839;48.662;13.300;2023-02-28T13:07:53;98038.25;;;8.48;48.49
49947;BME280;35839;48.662;13.300;2023-02-28T13:10:23;98047.13;;;7.89;51.55
49947;BME280;35839;48.662;13.300;2023-02-28T13:12:53;98057.19;;;7.82;50.56
49947;BME280;35839;48.662;13.300;2023-02-28T13:15:27;98057.44;;;8.35;50.09
49947;BME280;35839;48.662;13.300;2023-02-28T13:17:56;98058.50;;;8.55;50.15
49947;BME280;35839;48.662;13.300;2023-02-28T13:20:31;98062.69;;;8.58;48.76
49947;BME280;35839;48.662;13.300;2023-02-28T13:22:58;98053.72;;;8.83;50.33
49947;BME280;35839;48.662;13.300;2023-02-28T13:27:58;98055.06;;;8.77;49.61
49947;BME280;35839;48.662;13.300;2023-02-28T13:33:35;98052.84;;;9.37;47.83
49947;BME280;35839;48.662;13.300;2023-02-28T13:38:53;98043.13;;;10.22;46.37
49947;BME280;35839;48.662;13.300;2023-02-28T13:49:26;98056.06;;;9.50;46.23
49947;BME280;35839;48.662;13.300;2023-02-28T14:11:44;98061.13;;;9.84;46.48
49947;BME280;35839;48.662;13.300;2023-02-28T14:17:03;98066.31;;;10.26;46.90
49947;BME280;35839;48.662;13.300;2023-02-28T14:19:31;98064.59;;;10.46;43.99
49947;BME280;35839;48.662;13.300;2023-02-28T14:30:15;98063.97;;;8.63;48.87
49947;BME280;35839;48.662;13.300;2023-02-28T14:33:05;98076.94;;;8.42;48.37
49947;BME280;35839;48.662;13.300;2023-02-28T14:43:57;98076.72;;;7.88;51.92
49947;BME280;35839;48.662;13.300;2023-02-28T14:46:27;98081.72;;;7.20;53.97
49947;BME280;35839;48.662;13.300;2023-02-28T14:48:53;98077.44;;;7.78;52.81
49947;BME280;35839;48.662;13.300;2023-02-28T14:51:21;98076.53;;;7.20;55.02
49947;BME280;35839;48.662;13.300;2023-02-28T14:53:51;98080.28;;;7.40;51.91
49947;BME280;35839;48.662;13.300;2023-02-28T14:56:21;98082.47;;;6.98;54.10
49947;BME280;35839;48.662;13.300;2023-02-28T14:58:56;98071.72;;;7.27;53.49
49947;BME280;35839;48.662;13.300;2023-02-28T15:01:23;98079.25;;;6.94;54.23
49947;BME280;35839;48.662;13.300;2023-02-28T15:03:58;98085.78;;;6.76;56.03
49947;BME280;35839;48.662;13.300;2023-02-28T15:06:23;98084.50;;;6.45;57.34
49947;BME280;35839;48.662;13.300;2023-02-28T15:09:07;98084.53;;;6.32;58.45
49947;BME280;35839;48.662;13.300;2023-02-28T15:11:33;98089.28;;;6.51;57.42
49947;BME280;35839;48.662;13.300;2023-02-28T15:14:00;98090.75;;;6.42;57.32
49947;BME280;35839;48.662;13.300;2023-02-28T15:16:26;98084.84;;;6.64;57.24
49947;BME280;35839;48.662;13.300;2023-02-28T15:19:27;98091.88;;;6.38;58.42
49947;BME280;35839;48.662;13.300;2023-02-28T15:21:58;98091.97;;;6.49;58.53
49947;BME280;35839;48.662;13.300;2023-02-28T15:24:42;98085.09;;;6.61;57.49
49947;BME280;35839;48.662;13.300;2023-02-28T15:27:20;98094.63;;;6.11;59.33
49947;BME280;35839;48.662;13.300;2023-02-28T15:29:49;98094.09;;;6.19;58.99
49947;BME280;35839;48.662;13.300;2023-02-28T15:32:37;98098.06;;;6.11;59.23
49947;BME280;35839;48.662;13.300;2023-02-28T15:38:18;98098.88;;;6.12;60.32
49947;BME280;35839;48.662;13.300;2023-02-28T15:40:52;98100.63;;;6.24;59.31
49947;BME280;35839;48.662;13.300;2023-02-28T15:45:55;98104.81;;;6.14;59.22
49947;BME280;35839;48.662;13.300;2023-02-28T15:50:49;98103.47;;;6.34;59.62
49947;BME280;35839;48.662;13.300;2023-02-28T15:53:21;98104.81;;;6.01;59.87
49947;BME280;35839;48.662;13.300;2023-02-28T15:56:00;98100.53;;;5.87;61.57
49947;BME280;35839;48.662;13.300;2023-02-28T15:58:26;98100.66;;;5.99;60.26
49947;BME280;35839;48.662;13.300;2023-02-28T16:01:25;98107.41;;;6.01;60.79
49947;BME280;35839;48.662;13.300;2023-02-28T16:03:53;98105.13;;;5.57;62.82
49947;BME280;35839;48.662;13.300;2023-02-28T16:06:25;98108.03;;;5.39;61.98
49947;BME280;35839;48.662;13.300;2023-02-28T16:08:51;98098.38;;;5.41;62.51
49947;BME280;35839;48.662;13.300;2023-02-28T16:11:19;98110.09;;;5.34;61.59
49947;BME280;35839;48.662;13.300;2023-02-28T16:13:45;98103.28;;;5.19;63.82
49947;BME280;35839;48.662;13.300;2023-02-28T16:16:16;98105.78;;;5.73;61.71
49947;BME280;35839;48.662;13.300;2023-02-28T16:18:42;98110.19;;;5.33;62.65
49947;BME280;35839;48.662;13.300;2023-02-28T16:21:08;98107.16;;;5.26;63.14
49947;BME280;35839;48.662;13.300;2023-02-28T16:23:33;98098.38;;;4.87;65.76
49947;BME280;35839;48.662;13.300;2023-02-28T16:25:59;98103.06;;;4.68;66.39
49947;BME280;35839;48.662;13.300;2023-02-28T16:28:30;98104.16;;;4.78;65.88
49947;BME280;35839;48.662;13.300;2023-02-28T16:30:59;98100.66;;;4.92;64.78
49947;BME280;35839;48.662;13.300;2023-02-28T16:33:25;98104.91;;;4.65;66.30
49947;BME280;35839;48.662;13.300;2023-02-28T16:35:51;98112.25;;;5.00;65.81
49947;BME280;35839;48.662;13.300;2023-02-28T16:38:17;98111.88;;;4.51;67.43
49947;BME280;35839;48.662;13.300;2023-02-28T16:40:42;98115.66;;;4.45;68.46
49947;BME280;35839;48.662;13.300;2023-02-28T16:43:15;98109.72;;;4.72;66.84
49947;BME280;35839;48.662;13.300;2023-02-28T16:45:42;98117.75;;;5.23;64.48
49947;BME280;35839;48.662;13.300;2023-02-28T16:48:13;98111.38;;;5.54;62.13
49947;BME280;35839;48.662;13.300;2023-02-28T16:50:39;98116.84;;;5.37;63.67
49947;BME280;35839;48.662;13.300;2023-02-28T16:53:04;98125.50;;;4.96;65.03
49947;BME280;35839;48.662;13.300;2023-02-28T16:55:29;98132.34;;;4.55;65.71
49947;BME280;35839;48.662;13.300;2023-02-28T16:57:59;98125.09;;;5.16;64.23
49947;BME280;35839;48.662;13.300;2023-02-28T17:00:26;98132.59;;;5.34;64.96
49947;BME280;35839;48.662;13.300;2023-02-28T17:02:52;98142.31;;;4.90;66.03
49947;BME280;35839;48.662;13.300;2023-02-28T17:05:18;98136.00;;;4.94;64.39
49947;BME280;35839;48.662;13.300;2023-02-28T17:07:44;98147.66;;;4.87;65.36
49947;BME280;35839;48.662;13.300;2023-02-28T17:10:20;98147.91;;;4.70;65.43
49947;BME280;35839;48.662;13.300;2023-02-28T17:12:46;98139.88;;;4.87;64.30
49947;BME280;35839;48.662;13.300;2023-02-28T17:15:13;98145.69;;;4.78;64.80
49947;BME280;35839;48.662;13.300;2023-02-28T17:17:40;98147.41;;;4.77;65.51
49947;BME280;35839;48.662;13.300;2023-02-28T17:20:09;98145.66;;;5.19;64.92
49947;BME280;35839;48.662;13.300;2023-02-28T17:22:36;98149.81;;;5.22;62.56
49947;BME280;35839;48.662;13.300;2023-02-28T17:25:01;98149.50;;;5.54;62.65
49947;BME280;35839;48.662;13.300;2023-02-28T17:27:27;98155.16;;;5.06;63.30
49947;BME280;35839;48.662;13.300;2023-02-28T17:29:52;98152.63;;;5.19;63.57
49947;BME280;35839;48.662;13.300;2023-02-28T17:32:17;98159.66;;;5.17;62.30
49947;BME280;35839;48.662;13.300;2023-02-28T17:34:43;98154.31;;;5.05;63.50
49947;BME280;35839;48.662;13.300;2023-02-28T17:37:09;98164.75;;;4.19;68.12
49947;BME280;35839;48.662;13.300;2023-02-28T17:39:34;98164.69;;;3.91;69.54
49947;BME280;35839;48.662;13.300;2023-02-28T17:42:00;98161.25;;;3.76;70.23
49947;BME280;35839;48.662;13.300;2023-02-28T17:44:25;98163.03;;;3.90;70.59
49947;BME280;35839;48.662;13.300;2023-02-28T17:46:51;98162.72;;;4.10;69.57
49947;BME280;35839;48.662;13.300;2023-02-28T17:49:19;98156.41;;;4.86;67.15
49947;BME280;35839;48.662;13.300;2023-02-28T17:51:45;98165.13;;;4.28;69.19
49947;BME280;35839;48.662;13.300;2023-02-28T17:54:10;98168.53;;;4.85;65.70
49947;BME280;35839;48.662;13.300;2023-02-28T17:56:36;98164.97;;;4.59;66.54
49947;BME280;35839;48.662;13.300;2023-02-28T17:59:01;98160.97;;;4.39;67.60
49947;BME280;35839;48.662;13.300;2023-02-28T18:01:26;98168.94;;;4.51;67.72
49947;BME280;35839;48.662;13.300;2023-02-28T18:03:53;98163.19;;;4.31;67.88
49947;BME280;35839;48.662;13.300;2023-02-28T18:06:22;98160.66;;;4.73;66.11
49947;BME280;35839;48.662;13.300;2023-02-28T18:08:49;98165.13;;;4.71;67.39
49947;BME280;35839;48.662;13.300;2023-02-28T18:11:17;98161.22;;;4.63;67.06
49947;BME280;35839;48.662;13.300;2023-02-28T18:13:44;98164.28;;;4.70;67.49
49947;BME280;35839;48.662;13.300;2023-02-28T18:16:10;98161.97;;;4.51;67.38
49947;BME280;35839;48.662;13.300;2023-02-28T18:18:36;98161.72;;;4.56;67.09
49947;BME280;35839;48.662;13.300;2023-02-28T18:21:04;98154.53;;;4.88;65.80
49947;BME280;35839;48.662;13.300;2023-02-28T18:23:30;98156.63;;;4.69;66.16
49947;BME280;35839;48.662;13.300;2023-02-28T18:25:55;98154.50;;;5.02;65.07
49947;BME280;35839;48.662;13.300;2023-02-28T18:28:20;98157.81;;;4.34;66.85
49947;BME280;35839;48.662;13.300;2023-02-28T18:30:45;98154.38;;;4.62;66.06
49947;BME280;35839;48.662;13.300;2023-02-28T18:33:11;98161.75;;;4.97;65.86
49947;BME280;35839;48.662;13.300;2023-02-28T18:35:36;98154.81;;;5.25;63.80
49947;BME280;35839;48.662;13.300;2023-02-28T18:38:06;98160.63;;;5.28;64.42
49947;BME280;35839;48.662;13.300;2023-02-28T18:40:31;98156.03;;;4.92;65.00
49947;BME280;35839;48.662;13.300;2023-02-28T18:42:57;98157.34;;;4.85;65.87
49947;BME280;35839;48.662;13.300;2023-02-28T18:45:22;98158.63;;;4.92;66.51
49947;BME280;35839;48.662;13.300;2023-02-28T18:47:48;98153.59;;;4.89;66.12
49947;BME280;35839;48.662;13.300;2023-02-28T18:50:13;98153.94;;;5.12;64.85
49947;BME280;35839;48.662;13.300;2023-02-28T18:52:38;98154.50;;;5.02;65.17
49947;BME280;35839;48.662;13.300;2023-02-28T18:55:04;98160.78;;;4.71;66.03
49947;BME280;35839;48.662;13.300;2023-02-28T18:57:32;98157.88;;;4.90;65.41
49947;BME280;35839;48.662;13.300;2023-02-28T18:59:57;98156.97;;;4.77;65.30
49947;BME280;35839;48.662;13.300;2023-02-28T19:02:22;98154.16;;;4.80;65.37
49947;BME280;35839;48.662;13.300;2023-02-28T19:04:47;98153.16;;;4.82;65.97
49947;BME280;35839;48.662;13.300;2023-02-28T19:07:13;98156.78;;;4.94;64.33
49947;BME280;35839;48.662;13.300;2023-02-28T19:09:38;98138.59;;;5.21;63.39
49947;BME280;35839;48.662;13.300;2023-02-28T19:12:04;98145.50;;;4.67;66.51
49947;BME280;35839;48.662;13.300;2023-02-28T19:14:29;98142.63;;;4.28;66.89
49947;BME280;35839;48.662;13.300;2023-02-28T19:16:54;98148.47;;;4.46;67.00
49947;BME280;35839;48.662;13.300;2023-02-28T19:19:20;98150.03;;;4.49;67.62
49947;BME280;35839;48.662;13.300;2023-02-28T19:21:45;98147.31;;;4.79;65.81
49947;BME280;35839;48.662;13.300;2023-02-28T19:24:10;98147.78;;;4.57;67.17
49947;BME280;35839;48.662;13.300;2023-02-28T19:26:36;98149.84;;;4.80;66.68
49947;BME280;35839;48.662;13.300;2023-02-28T19:29:03;98144.94;;;4.76;65.22
49947;BME280;35839;48.662;13.300;2023-02-28T19:31:29;98150.09;;;4.90;64.65
49947;BME280;35839;48.662;13.300;2023-02-28T19:33:54;98141.94;;;5.23;63.42
49947;BME280;35839;48.662;13.300;2023-02-28T19:36:20;98145.13;;;5.41;62.55
49947;BME280;35839;48.662;13.300;2023-02-28T19:38:46;98143.84;;;5.34;62.89
49947;BME280;35839;48.662;13.300;2023-02-28T19:41:13;98148.78;;;5.52;62.24
49947;BME280;35839;48.662;13.300;2023-02-28T19:43:39;98151.72;;;5.60;62.48
49947;BME280;35839;48.662;13.300;2023-02-28T19:46:05;98158.03;;;5.56;60.87
49947;BME280;35839;48.662;13.300;2023-02-28T19:48:31;98160.03;;;5.25;63.78
49947;BME280;35839;48.662;13.300;2023-02-28T19:50:58;98155.25;;;5.04;64.35
49947;BME280;35839;48.662;13.300;2023-02-28T19:53:24;98164.44;;;5.37;62.65
49947;BME280;35839;48.662;13.300;2023-02-28T19:55:51;98161.56;;;5.55;61.36
49947;BME280;35839;48.662;13.300;2023-02-28T19:58:18;98163.63;;;5.49;63.56
49947;BME280;35839;48.662;13.300;2023-02-28T20:00:43;98155.03;;;5.07;62.83
49947;BME280;35839;48.662;13.300;2023-02-28T20:03:08;98164.03;;;5.43;63.71
49947;BME280;35839;48.662;13.300;2023-02-28T20:05:34;98167.31;;;4.91;64.61
49947;BME280;35839;48.662;13.300;2023-02-28T20:07:59;98161.00;;;4.95;64.72
49947;BME280;35839;48.662;13.300;2023-02-28T20:10:25;98155.81;;;5.37;63.61
49947;BME280;35839;48.662;13.300;2023-02-28T20:12:50;98163.00;;;5.46;63.37
49947;BME280;35839;48.662;13.300;2023-02-28T20:15:16;98160.34;;;5.73;62.00
49947;BME280;35839;48.662;13.300;2023-02-28T20:17:41;98161.38;;;5.58;62.60
49947;BME280;35839;48.662;13.300;2023-02-28T20:20:08;98165.69;;;4.61;66.26
49947;BME280;35839;48.662;13.300;2023-02-28T20:22:36;98168.50;;;5.00;63.27
49947;BME280;35839;48.662;13.300;2023-02-28T20:25:02;98159.16;;;4.97;63.50
49947;BME280;35839;48.662;13.300;2023-02-28T20:27:27;98165.44;;;5.07;63.54
49947;BME280;35839;48.662;13.300;2023-02-28T20:29:53;98161.63;;;5.40;62.88
49947;BME280;35839;48.662;13.300;2023-02-28T20:32:18;98165.63;;;5.59;62.27
49947;BME280;35839;48.662;13.300;2023-02-28T20:34:44;98165.59;;;5.46;63.40
49947;BME280;35839;48.662;13.300;2023-02-28T20:37:09;98165.97;;;5.67;61.60
49947;BME280;35839;48.662;13.300;2023-02-28T20:39:35;98167.84;;;6.05;60.15